Time;durP1;ratioP1;P1;durP2;ratioP2;P2;SDS_P1;SDS_P2;PMS_P1;PMS_P2;Temp;Humidity;BMP_temperature;BMP_pressure;BME280_temperature;BME280_humidity;BME280_pressure;Samples;Min_cycle;Max_cycle;Signal;HPM_P1;HPM_P2
2021/06/17 00:02:14;;;;;;;9.05;6.07;;;18.60;99.90;;;;;;5080343;28;20051;-78
2021/06/17 00:05:13;;;;;;;8.27;5.85;;;18.60;99.90;;;;;;5087345;28;20653;-78
2021/06/17 00:08:19;;;;;;;6.60;5.90;;;18.60;99.90;;;;;;5087649;28;20494;-78
2021/06/17 00:14:52;;;;;;;6.70;5.90;;;18.50;99.90;;;;;;5094129;28;20509;-78
2021/06/17 00:17:38;;;;;;;8.38;5.63;;;18.50;99.90;;;;;;5092518;28;20281;-78
2021/06/17 00:20:16;;;;;;;6.13;5.53;;;18.50;99.90;;;;;;5063228;28;20093;-78
2021/06/17 00:23:37;;;;;;;6.85;5.82;;;18.50;99.90;;;;;;5082710;28;20034;-78
2021/06/17 00:26:55;;;;;;;8.73;6.53;;;18.40;99.90;;;;;;5087181;28;20110;-78
2021/06/17 00:29:32;;;;;;;6.57;5.50;;;18.40;99.90;;;;;;5086165;28;20036;-77
2021/06/17 00:32:34;;;;;;;6.65;5.97;;;18.30;99.90;;;;;;5092279;28;20068;-78
2021/06/17 00:35:34;;;;;;;7.53;5.90;;;18.30;99.90;;;;;;5083422;28;20044;-78
2021/06/17 00:38:56;;;;;;;6.90;5.63;;;18.30;99.90;;;;;;5091520;28;20031;-78
2021/06/17 00:42:02;;;;;;;8.18;6.28;;;18.30;99.90;;;;;;5080734;28;20507;-78
2021/06/17 00:45:20;;;;;;;6.85;5.90;;;18.30;99.90;;;;;;5091256;28;20084;-78
2021/06/17 00:48:26;;;;;;;6.47;5.63;;;18.30;99.90;;;;;;5090915;28;20043;-78
2021/06/17 00:52:02;;;;;;;6.30;5.40;;;18.30;99.90;;;;;;5073901;28;20116;-78
2021/06/17 00:54:41;;;;;;;7.60;5.45;;;18.20;99.90;;;;;;5089036;28;20066;-78
2021/06/17 00:57:14;;;;;;;9.00;6.03;;;18.20;99.90;;;;;;5090453;28;20032;-78
2021/06/17 01:00:14;;;;;;;7.03;5.28;;;18.20;99.90;;;;;;5087680;28;20188;-78
2021/06/17 01:02:43;;;;;;;8.43;5.80;;;18.10;99.90;;;;;;5089174;28;20034;-77
2021/06/17 01:05:36;;;;;;;6.05;5.28;;;18.10;99.90;;;;;;5084854;28;20398;-78
2021/06/17 01:08:42;;;;;;;5.80;5.30;;;18.10;99.90;;;;;;5091161;28;20035;-77
2021/06/17 01:11:21;;;;;;;5.90;5.28;;;18.10;99.90;;;;;;5091237;28;20036;-77
2021/06/17 01:14:29;;;;;;;5.95;5.07;;;18.10;99.90;;;;;;5085639;28;20613;-77
2021/06/17 01:17:49;;;;;;;5.60;4.82;;;18.20;99.90;;;;;;5079055;28;20048;-77
2021/06/17 01:21:00;;;;;;;5.97;4.97;;;18.30;99.90;;;;;;5083248;28;20047;-77
2021/06/17 01:24:28;;;;;;;5.07;4.53;;;18.20;99.90;;;;;;5075682;28;20057;-77
2021/06/17 01:27:35;;;;;;;5.63;4.93;;;18.20;99.90;;;;;;5086280;28;20088;-77
2021/06/17 01:30:50;;;;;;;6.18;4.97;;;18.10;99.90;;;;;;5089628;28;20142;-77
2021/06/17 01:33:46;;;;;;;5.70;5.10;;;18.00;99.90;;;;;;5089096;28;20467;-77
2021/06/17 01:36:36;;;;;;;6.40;5.40;;;18.00;99.90;;;;;;5086054;28;20042;-77
2021/06/17 01:39:38;;;;;;;6.78;5.25;;;17.90;99.90;;;;;;5095667;28;20024;-77
2021/06/17 01:42:24;;;;;;;7.25;5.18;;;17.90;99.90;;;;;;5111960;27;20071;-77
2021/06/17 01:45:35;;;;;;;5.85;4.72;;;17.90;99.90;;;;;;5087511;28;20082;-77
2021/06/17 01:48:08;;;;;;;7.28;5.25;;;17.80;99.90;;;;;;5081296;28;20036;-77
2021/06/17 01:51:04;;;;;;;5.05;4.55;;;17.80;99.90;;;;;;5073003;28;20809;-77
2021/06/17 01:53:39;;;;;;;6.18;4.78;;;17.70;99.90;;;;;;5090365;28;20046;-78
2021/06/17 01:57:13;;;;;;;6.40;4.95;;;17.70;99.90;;;;;;5092606;28;20402;-77
2021/06/17 02:00:10;;;;;;;5.43;4.70;;;17.70;99.90;;;;;;5092573;28;20093;-77
2021/06/17 02:02:57;;;;;;;6.07;5.10;;;17.60;99.90;;;;;;5088571;28;20043;-77
2021/06/17 02:05:38;;;;;;;8.05;4.90;;;17.60;99.90;;;;;;5079892;28;20501;-77
2021/06/17 02:09:12;;;;;;;5.55;4.70;;;17.60;99.90;;;;;;5090009;28;20068;-77
2021/06/17 02:12:06;;;;;;;6.28;4.70;;;17.60;99.90;;;;;;5089879;28;20449;-77
2021/06/17 02:15:16;;;;;;;6.40;4.90;;;17.60;99.90;;;;;;5091489;28;20078;-77
2021/06/17 02:18:36;;;;;;;5.87;5.27;;;17.50;99.90;;;;;;5102444;27;20063;-77
2021/06/17 02:22:04;;;;;;;6.20;4.57;;;17.50;99.90;;;;;;5088149;28;20046;-77
2021/06/17 02:24:47;;;;;;;5.53;4.95;;;17.40;99.90;;;;;;5096079;28;20047;-77
2021/06/17 02:27:44;;;;;;;5.38;4.78;;;17.40;99.90;;;;;;5095851;28;20386;-77
2021/06/17 02:30:26;;;;;;;5.60;4.55;;;17.40;99.90;;;;;;5089188;28;20020;-77
2021/06/17 02:33:25;;;;;;;7.13;5.30;;;17.30;99.90;;;;;;5089994;28;20728;-77
2021/06/17 02:36:26;;;;;;;5.95;5.35;;;17.30;99.90;;;;;;5092958;28;20127;-77
2021/06/17 02:39:12;;;;;;;7.53;5.57;;;17.30;99.90;;;;;;5078749;28;20042;-77
2021/06/17 02:41:58;;;;;;;6.63;5.28;;;17.30;99.90;;;;;;5101545;27;20032;-79
2021/06/17 02:45:11;;;;;;;8.25;5.50;;;17.40;99.90;;;;;;5071262;28;20040;-78
2021/06/17 02:48:30;;;;;;;6.40;5.57;;;17.50;99.90;;;;;;5091043;28;20023;-78
2021/06/17 02:51:25;;;;;;;5.88;5.20;;;17.50;99.90;;;;;;5094633;28;20040;-78
2021/06/17 02:54:24;;;;;;;7.30;5.70;;;17.50;99.90;;;;;;5093614;28;20032;-78
2021/06/17 02:57:45;;;;;;;8.55;4.90;;;17.40;99.90;;;;;;5085538;28;20044;-78
2021/06/17 03:01:01;;;;;;;5.35;4.85;;;17.40;99.90;;;;;;5087210;28;20066;-78
2021/06/17 03:04:29;;;;;;;7.18;5.05;;;17.40;99.90;;;;;;5086682;28;20059;-78
2021/06/17 03:07:02;;;;;;;4.75;4.30;;;17.30;99.90;;;;;;5091970;28;20039;-78
2021/06/17 03:09:46;;;;;;;6.30;4.97;;;17.30;99.90;;;;;;5093538;28;20058;-78
2021/06/17 03:12:56;;;;;;;4.63;4.22;;;17.30;99.90;;;;;;5069737;28;20066;-78
2021/06/17 03:15:53;;;;;;;5.88;4.85;;;17.20;99.90;;;;;;5089203;28;20411;-78
2021/06/17 03:18:45;;;;;;;5.78;5.00;;;17.20;99.90;;;;;;5090124;28;20043;-78
2021/06/17 03:21:27;;;;;;;5.28;4.78;;;17.20;99.90;;;;;;5077870;28;20545;-78
2021/06/17 03:24:39;;;;;;;5.07;4.57;;;17.20;99.90;;;;;;5090089;28;20138;-78
2021/06/17 03:27:52;;;;;;;5.95;4.70;;;17.10;99.90;;;;;;5089060;28;20551;-78
2021/06/17 03:30:28;;;;;;;5.70;4.78;;;17.10;99.90;;;;;;5091668;28;20501;-78
2021/06/17 03:33:09;;;;;;;8.13;5.25;;;17.10;99.90;;;;;;5093903;28;20019;-78
2021/06/17 03:36:11;;;;;;;5.45;4.95;;;17.10;99.90;;;;;;5088565;28;20032;-78
2021/06/17 03:38:52;;;;;;;5.60;4.88;;;17.10;99.90;;;;;;5083572;28;20024;-78
2021/06/17 03:41:36;;;;;;;5.68;4.63;;;17.10;99.90;;;;;;5088485;28;20059;-78
2021/06/17 03:44:31;;;;;;;5.55;4.90;;;17.10;99.90;;;;;;5089823;28;20084;-78
2021/06/17 03:47:27;;;;;;;5.57;4.90;;;17.10;99.90;;;;;;5082666;28;20036;-78
2021/06/17 03:50:09;;;;;;;6.00;4.68;;;17.10;99.90;;;;;;5097709;28;20028;-78
2021/06/17 03:53:06;;;;;;;5.35;4.85;;;17.10;99.90;;;;;;5090781;28;20034;-78
2021/06/17 03:55:40;;;;;;;5.15;4.65;;;17.10;99.90;;;;;;5098137;28;20100;-78
2021/06/17 03:58:25;;;;;;;6.55;4.60;;;17.10;99.90;;;;;;5097992;28;20443;-78
2021/06/17 04:01:13;;;;;;;7.95;5.05;;;17.20;99.90;;;;;;5098968;28;20016;-78
2021/06/17 04:04:31;;;;;;;6.28;4.72;;;17.20;99.90;;;;;;5095868;28;20513;-78
2021/06/17 04:07:39;;;;;;;5.15;4.60;;;17.30;99.90;;;;;;5089754;28;20087;-78
2021/06/17 04:10:37;;;;;;;5.47;4.68;;;17.30;99.90;;;;;;5091045;28;20604;-78
2021/06/17 04:13:38;;;;;;;7.90;5.18;;;17.30;99.90;;;;;;5092743;28;20040;-78
2021/06/17 04:16:44;;;;;;;7.32;5.18;;;17.40;99.90;;;;;;5085189;28;20043;-78
2021/06/17 04:19:39;;;;;;;5.68;4.97;;;17.40;99.90;;;;;;5086808;28;20035;-78
2021/06/17 04:22:28;;;;;;;7.15;4.85;;;17.40;99.90;;;;;;5089376;28;20060;-78
2021/06/17 04:25:46;;;;;;;6.28;4.63;;;17.50;99.90;;;;;;5086874;28;20052;-78
2021/06/17 04:28:39;;;;;;;5.28;4.45;;;17.50;99.90;;;;;;5090234;28;20089;-78
2021/06/17 04:31:44;;;;;;;5.45;4.93;;;17.50;99.90;;;;;;5086913;28;20102;-78
2021/06/17 04:34:25;;;;;;;5.85;5.18;;;17.60;99.90;;;;;;5091771;28;20024;-78
2021/06/17 04:37:25;;;;;;;5.32;4.82;;;17.70;99.90;;;;;;5094083;28;20036;-78
2021/06/17 04:40:29;;;;;;;5.35;4.88;;;17.80;99.90;;;;;;5096318;28;20020;-78
2021/06/17 04:43:11;;;;;;;5.50;4.78;;;17.80;99.90;;;;;;5089403;28;20671;-78
2021/06/17 04:46:03;;;;;;;5.90;4.60;;;17.90;99.90;;;;;;5093843;28;20101;-78
2021/06/17 04:49:23;;;;;;;5.25;4.72;;;18.00;99.90;;;;;;5097464;28;20111;-78
2021/06/17 04:52:02;;;;;;;5.32;4.63;;;18.00;99.90;;;;;;5097159;28;20652;-78
2021/06/17 04:54:57;;;;;;;5.80;4.63;;;18.10;99.90;;;;;;5096718;28;20028;-78
2021/06/17 04:57:42;;;;;;;8.10;5.03;;;18.20;99.90;;;;;;5073672;28;20113;-78
2021/06/17 05:00:48;;;;;;;5.25;4.47;;;18.30;99.90;;;;;;5091892;28;20092;-78
2021/06/17 05:03:20;;;;;;;6.50;4.65;;;18.40;99.90;;;;;;5091910;28;20035;-78
2021/06/17 05:06:18;;;;;;;5.03;4.55;;;18.50;99.90;;;;;;5094111;28;20110;-78
2021/06/17 05:12:02;;;;;;;5.35;4.68;;;18.70;99.90;;;;;;5102309;28;20077;-78
2021/06/17 05:14:59;;;;;;;6.00;4.95;;;18.80;99.90;;;;;;5095708;28;20575;-78
2021/06/17 05:17:40;;;;;;;5.78;5.28;;;18.90;99.90;;;;;;5093522;28;20573;-78
2021/06/17 05:20:48;;;;;;;7.28;5.65;;;19.10;99.90;;;;;;5089831;28;20069;-78
2021/06/17 05:23:51;;;;;;;8.27;5.88;;;19.30;99.90;;;;;;5089079;28;20039;-78
2021/06/17 05:27:06;;;;;;;8.27;5.68;;;19.50;99.90;;;;;;5090914;28;20032;-78
2021/06/17 05:29:50;;;;;;;5.85;5.00;;;19.60;99.90;;;;;;5091606;28;20110;-78
2021/06/17 05:32:44;;;;;;;6.78;5.07;;;20.00;99.90;;;;;;5091796;28;20127;-78
2021/06/17 05:35:16;;;;;;;5.88;5.35;;;20.50;99.90;;;;;;5091325;28;20024;-78
2021/06/17 05:37:50;;;;;;;6.20;5.05;;;21.20;99.90;;;;;;5070577;28;20033;-78
2021/06/17 05:40:49;;;;;;;6.43;5.72;;;21.80;99.90;;;;;;5082063;28;20934;-78
2021/06/17 05:43:38;;;;;;;;;;;22.60;99.90;;;;;;5075778;28;20035;-78
2021/06/17 05:46:26;;;;;;;6.25;5.47;;;23.30;99.90;;;;;;5088085;28;20306;-78
2021/06/17 05:50:06;;;;;;;5.38;4.88;;;24.00;99.90;;;;;;5091951;28;20038;-78
2021/06/17 05:53:25;;;;;;;9.02;4.80;;;24.80;99.90;;;;;;5086664;28;20032;-78
2021/06/17 05:55:58;;;;;;;5.30;4.80;;;25.50;96.80;;;;;;5086066;28;20078;-78
2021/06/17 05:58:36;;;;;;;6.57;5.70;;;26.10;93.10;;;;;;5080844;28;20059;-78
2021/06/17 06:01:40;;;;;;;6.43;4.20;;;26.50;90.80;;;;;;5094950;28;20458;-79
2021/06/17 06:04:44;;;;;;;5.03;4.32;;;26.90;90.00;;;;;;5092035;28;20538;-78
2021/06/17 06:08:02;;;;;;;5.10;4.60;;;27.40;84.20;;;;;;5096245;28;20080;-78
2021/06/17 06:10:58;;;;;;;6.47;4.93;;;27.70;78.10;;;;;;5090360;28;20020;-78
2021/06/17 06:13:47;;;;;;;6.80;4.38;;;27.90;77.20;;;;;;5104421;27;20028;-81
2021/06/17 06:16:43;;;;;;;9.50;5.47;;;28.30;77.30;;;;;;5084538;28;20127;-80
2021/06/17 06:19:22;;;;;;;5.15;3.95;;;28.70;72.20;;;;;;5087263;28;20039;-79
2021/06/17 06:22:20;;;;;;;4.43;4.03;;;28.60;66.90;;;;;;5088504;28;20030;-79
2021/06/17 06:25:29;;;;;;;6.55;4.57;;;28.80;65.10;;;;;;5087653;28;20044;-80
2021/06/17 06:33:45;;;;;;;5.00;4.50;;;29.90;61.20;;;;;;4960572;28;20038;-77
2021/06/17 06:36:10;;;;;;;6.40;4.40;;;30.20;61.20;;;;;;4945068;28;20051;-77
2021/06/17 06:38:36;;;;;;;5.07;4.20;;;30.30;60.30;;;;;;4964662;28;20027;-78
2021/06/17 06:41:02;;;;;;;3.83;3.53;;;30.60;59.60;;;;;;4956727;28;20093;-77
2021/06/17 06:43:28;;;;;;;4.32;3.75;;;30.90;56.70;;;;;;4952744;28;20062;-77
2021/06/17 06:45:54;;;;;;;4.63;4.00;;;30.80;57.30;;;;;;4956805;28;20553;-76
2021/06/17 06:48:20;;;;;;;4.20;3.80;;;31.10;57.60;;;;;;4955352;28;20126;-79
2021/06/17 06:50:47;;;;;;;4.28;3.88;;;31.40;54.70;;;;;;4954226;28;20089;-78
2021/06/17 06:53:13;;;;;;;3.90;3.58;;;31.60;58.00;;;;;;4950670;28;20089;-78
2021/06/17 06:55:39;;;;;;;4.28;3.63;;;31.90;56.50;;;;;;4957078;28;20501;-77
2021/06/17 06:58:05;;;;;;;3.65;3.20;;;32.20;54.20;;;;;;4954666;28;20035;-77
2021/06/17 07:00:32;;;;;;;3.60;3.30;;;32.30;54.20;;;;;;4959048;28;20034;-77
2021/06/17 07:02:58;;;;;;;4.18;3.60;;;32.20;53.90;;;;;;4953460;28;20125;-78
2021/06/17 07:05:26;;;;;;;4.68;4.22;;;32.00;54.20;;;;;;4953954;28;20122;-76
2021/06/17 07:07:52;;;;;;;5.13;3.83;;;32.20;51.30;;;;;;4948115;28;20039;-77
2021/06/17 07:10:17;;;;;;;4.38;3.97;;;32.30;53.80;;;;;;4955872;28;20400;-77
2021/06/17 07:12:43;;;;;;;4.18;3.55;;;32.10;51.30;;;;;;4952416;28;20054;-77
2021/06/17 07:15:12;;;;;;;5.72;3.78;;;32.10;53.60;;;;;;4959906;28;20077;-76
2021/06/17 07:17:38;;;;;;;5.15;3.63;;;32.20;51.70;;;;;;4956866;28;20125;-78
2021/06/17 07:20:04;;;;;;;3.90;3.50;;;32.20;52.30;;;;;;4965184;28;20061;-77
2021/06/17 07:22:30;;;;;;;3.47;3.17;;;32.20;51.90;;;;;;4958120;28;20023;-77
2021/06/17 07:24:56;;;;;;;3.72;3.10;;;32.20;51.90;;;;;;4968255;28;20034;-78
2021/06/17 07:27:23;;;;;;;3.47;3.17;;;32.50;52.30;;;;;;4920423;28;20612;-77
2021/06/17 07:29:51;;;;;;;3.70;3.40;;;32.70;52.70;;;;;;4971355;28;20033;-78
2021/06/17 07:32:17;;;;;;;3.47;3.05;;;32.90;51.70;;;;;;4965693;28;20097;-77
2021/06/17 07:34:44;;;;;;;4.80;3.47;;;33.10;50.10;;;;;;4961448;28;20039;-78
2021/06/17 07:37:10;;;;;;;3.00;2.70;;;33.00;49.40;;;;;;4969594;28;20051;-78
2021/06/17 07:39:35;;;;;;;4.60;3.30;;;33.10;52.10;;;;;;4949726;29;20086;-79
2021/06/17 07:42:01;;;;;;;4.65;3.20;;;33.10;49.60;;;;;;4965085;28;20018;-79
2021/06/17 07:44:27;;;;;;;3.83;3.22;;;33.00;47.70;;;;;;4956505;28;20087;-78
2021/06/17 07:46:52;;;;;;;2.92;2.60;;;32.70;48.70;;;;;;4950246;28;20070;-77
2021/06/17 07:49:18;;;;;;;2.80;2.60;;;32.30;49.80;;;;;;4968319;28;20031;-78
2021/06/17 07:51:44;;;;;;;3.35;3.05;;;31.80;51.40;;;;;;4969441;28;20081;-78
2021/06/17 07:54:09;;;;;;;8.23;3.40;;;31.60;50.50;;;;;;4957680;28;20590;-77
2021/06/17 07:56:35;;;;;;;3.78;3.38;;;31.50;48.70;;;;;;4963837;28;20125;-79
2021/06/17 07:59:01;;;;;;;3.25;3.05;;;31.20;49.80;;;;;;4961084;28;20023;-78
2021/06/17 08:01:27;;;;;;;4.97;3.03;;;31.10;50.60;;;;;;4963650;28;20024;-78
2021/06/17 08:03:53;;;;;;;3.35;2.53;;;30.90;50.20;;;;;;4957605;28;20027;-78
2021/06/17 08:06:20;;;;;;;2.78;2.55;;;30.80;50.10;;;;;;4961061;28;20034;-80
2021/06/17 08:08:45;;;;;;;3.55;2.50;;;30.90;51.70;;;;;;4962222;28;20027;-78
2021/06/17 08:11:12;;;;;;;4.35;2.92;;;30.60;49.60;;;;;;4962648;28;20033;-78
2021/06/17 08:13:38;;;;;;;3.25;2.90;;;30.40;51.40;;;;;;4961328;28;20046;-78
2021/06/17 08:16:04;;;;;;;4.13;2.35;;;30.20;49.40;;;;;;4957075;28;20383;-78
2021/06/17 08:18:30;;;;;;;3.05;2.45;;;30.00;50.60;;;;;;4960597;28;20023;-78
2021/06/17 08:20:58;;;;;;;4.28;3.20;;;29.40;50.20;;;;;;4925326;28;20035;-77
2021/06/17 08:23:25;;;;;;;5.22;2.72;;;29.10;52.00;;;;;;4936721;28;20142;-77
2021/06/17 08:25:51;;;;;;;3.05;2.75;;;28.90;51.30;;;;;;4957014;28;20055;-78
2021/06/17 08:28:17;;;;;;;3.67;2.47;;;28.60;50.70;;;;;;4945774;28;20049;-78
2021/06/17 08:30:43;;;;;;;3.10;2.63;;;28.40;51.50;;;;;;4959340;28;20549;-77
2021/06/17 08:33:09;;;;;;;3.50;2.38;;;28.50;53.40;;;;;;4943565;28;20023;-77
2021/06/17 08:35:35;;;;;;;2.05;1.85;;;28.60;50.70;;;;;;4939213;28;20445;-77
2021/06/17 08:38:01;;;;;;;4.25;2.88;;;28.80;51.80;;;;;;4955308;28;20090;-79
2021/06/17 08:40:30;;;;;;;5.90;2.40;;;28.90;50.10;;;;;;4939039;28;20031;-76
2021/06/17 08:42:57;;;;;;;4.28;2.78;;;29.30;51.40;;;;;;4955949;28;20034;-77
2021/06/17 08:45:23;;;;;;;2.67;2.28;;;29.40;49.00;;;;;;4943335;28;20027;-77
2021/06/17 08:47:48;;;;;;;2.65;2.17;;;29.50;51.60;;;;;;4960249;28;20041;-77
2021/06/17 08:50:15;;;;;;;4.03;2.42;;;29.80;50.70;;;;;;4940980;28;20027;-77
2021/06/17 08:52:45;;;;;;;2.88;2.40;;;30.00;48.80;;;;;;4958734;28;20061;-77
2021/06/17 08:55:25;;;;;;;2.83;2.40;;;29.80;49.00;;;;;;4958173;28;20026;-77
2021/06/17 08:57:53;;;;;;;2.30;2.20;;;30.00;46.60;;;;;;4956465;28;20039;-77
2021/06/17 09:00:21;;;;;;;2.35;2.10;;;30.00;48.20;;;;;;4955545;28;20037;-77
2021/06/17 09:02:56;;;;;;;3.42;2.42;;;30.30;49.80;;;;;;4927943;28;20023;-78
2021/06/17 09:05:23;;;;;;;4.07;2.47;;;30.30;48.80;;;;;;4961680;28;20027;-77
2021/06/17 09:07:49;;;;;;;6.07;2.50;;;30.50;49.80;;;;;;4960973;28;20258;-77
2021/06/17 09:10:16;;;;;;;3.13;2.63;;;30.40;48.50;;;;;;4958333;28;20030;-77
2021/06/17 09:12:47;;;;;;;2.42;2.22;;;30.30;48.30;;;;;;4940357;28;20110;-77
2021/06/17 09:15:13;;;;;;;2.50;2.30;;;30.30;50.80;;;;;;4953292;28;20529;-77
2021/06/17 09:17:39;;;;;;;2.55;2.35;;;30.10;50.90;;;;;;4940151;28;20027;-77
2021/06/17 09:20:08;;;;;;;2.25;2.05;;;30.00;49.60;;;;;;4946063;28;20122;-78
2021/06/17 09:22:35;;;;;;;2.75;2.03;;;30.00;48.60;;;;;;4954192;28;20465;-78
2021/06/17 09:25:02;;;;;;;2.30;2.10;;;29.80;48.70;;;;;;4941627;28;20561;-78
2021/06/17 09:27:30;;;;;;;2.40;2.20;;;29.50;48.80;;;;;;4944914;28;20041;-78
2021/06/17 09:30:14;;;;;;;4.72;2.13;;;29.50;49.10;;;;;;4943496;28;20023;-77
2021/06/17 09:32:48;;;;;;;2.83;2.50;;;29.50;50.60;;;;;;4940760;28;20043;-77
2021/06/17 09:35:30;;;;;;;2.83;2.37;;;29.70;50.60;;;;;;4952283;28;20070;-77
2021/06/17 09:38:05;;;;;;;4.15;2.33;;;29.80;51.30;;;;;;4937186;28;21164;-78
2021/06/17 09:40:33;;;;;;;2.58;2.30;;;29.90;49.50;;;;;;4951902;28;20500;-76
2021/06/17 09:43:25;;;;;;;2.85;2.30;;;29.80;48.80;;;;;;4953367;28;20433;-77
2021/06/17 09:45:59;;;;;;;2.90;2.58;;;29.70;49.40;;;;;;4952608;28;20610;-77
2021/06/17 09:48:45;;;;;;;2.17;2.08;;;29.50;49.10;;;;;;4955448;28;20022;-77
2021/06/17 09:51:52;;;;;;;2.67;2.45;;;29.50;49.00;;;;;;4952147;28;20027;-77
2021/06/17 09:54:25;;;;;;;2.70;2.50;;;29.30;49.00;;;;;;4950726;28;20066;-77
2021/06/17 09:57:18;;;;;;;4.07;2.47;;;29.10;50.90;;;;;;4936397;28;20095;-77
2021/06/17 09:59:45;;;;;;;3.72;2.40;;;29.10;51.60;;;;;;4956139;28;20118;-77
2021/06/17 10:02:17;;;;;;;3.78;3.00;;;29.10;50.10;;;;;;4951023;28;20098;-77
2021/06/17 10:04:43;;;;;;;2.33;2.13;;;29.00;50.70;;;;;;4951124;28;20027;-77
2021/06/17 10:07:09;;;;;;;2.88;2.65;;;29.00;52.00;;;;;;4939976;28;20045;-77
2021/06/17 10:09:35;;;;;;;2.63;2.42;;;29.10;54.10;;;;;;4945790;28;20073;-77
2021/06/17 10:12:02;;;;;;;2.60;2.40;;;29.20;53.90;;;;;;4937450;28;20521;-78
2021/06/17 10:14:29;;;;;;;4.00;2.85;;;29.20;51.30;;;;;;4956181;28;20035;-77
2021/06/17 10:16:55;;;;;;;3.08;2.20;;;29.20;51.20;;;;;;4939757;28;20031;-77
2021/06/17 10:19:21;;;;;;;2.40;2.20;;;29.20;51.30;;;;;;4958010;28;20035;-77
2021/06/17 10:21:48;;;;;;;2.35;2.15;;;29.10;50.60;;;;;;4957433;28;20135;-77
2021/06/17 10:24:17;;;;;;;4.38;2.60;;;29.20;51.80;;;;;;4941678;28;20023;-77
2021/06/17 10:26:55;;;;;;;2.90;2.63;;;29.20;52.10;;;;;;4954282;28;20042;-77
2021/06/17 10:29:28;;;;;;;3.58;2.38;;;29.20;51.60;;;;;;4932590;28;20031;-77
2021/06/17 10:31:56;;;;;;;2.85;2.65;;;29.10;50.90;;;;;;4949892;28;20139;-77
2021/06/17 10:34:25;;;;;;;2.70;2.47;;;29.20;51.20;;;;;;4957281;28;20110;-77
2021/06/17 10:37:10;;;;;;;2.33;2.13;;;29.20;51.50;;;;;;4958096;28;20051;-77
2021/06/17 10:40:04;;;;;;;2.47;2.00;;;29.10;52.60;;;;;;4963242;28;20048;-78
2021/06/17 10:42:39;;;;;;;1.77;1.67;;;29.20;52.60;;;;;;4932600;28;20038;-77
2021/06/17 10:45:11;;;;;;;2.50;2.30;;;29.10;50.00;;;;;;4933496;28;20028;-77
2021/06/17 10:50:13;;;;;;;2.20;2.00;;;29.10;50.30;;;;;;4956386;28;20042;-77
2021/06/17 10:52:42;;;;;;;2.33;2.13;;;29.10;49.50;;;;;;4935434;28;20046;-77
2021/06/17 10:55:20;;;;;;;3.30;2.50;;;29.20;51.40;;;;;;4959206;28;20049;-77
2021/06/17 10:57:49;;;;;;;2.97;2.25;;;29.20;52.40;;;;;;4941555;28;20394;-78
2021/06/17 11:03:03;;;;;;;2.40;2.20;;;29.30;51.50;;;;;;4936506;28;20110;-78
2021/06/17 11:05:35;;;;;;;4.53;2.13;;;29.30;47.90;;;;;;4958398;28;20150;-78
2021/06/17 11:08:19;;;;;;;2.00;1.83;;;29.30;50.00;;;;;;4958942;28;20031;-78
2021/06/17 11:10:57;;;;;;;4.32;2.33;;;29.30;49.10;;;;;;4954629;28;20366;-78
2021/06/17 11:13:28;;;;;;;2.67;2.10;;;29.30;50.20;;;;;;4953553;28;20031;-77
2021/06/17 11:15:55;;;;;;;2.33;2.10;;;29.30;50.80;;;;;;4957539;28;20119;-78
2021/06/17 11:18:41;;;;;;;2.67;2.10;;;29.40;49.20;;;;;;4954624;28;20359;-76
2021/06/17 11:21:27;;;;;;;2.42;2.20;;;29.40;50.40;;;;;;4952288;28;21493;-77
2021/06/17 11:24:00;;;;;;;2.38;2.17;;;29.50;48.90;;;;;;4945939;28;20046;-76
2021/06/17 11:26:44;;;;;;;2.40;2.20;;;29.60;48.90;;;;;;4952218;28;20134;-77
2021/06/17 11:29:19;;;;;;;2.00;1.90;;;29.60;47.30;;;;;;4951360;28;20043;-77
2021/06/17 11:31:52;;;;;;;2.60;2.10;;;29.60;48.10;;;;;;4954165;28;20118;-78
2021/06/17 11:34:33;;;;;;;2.25;2.05;;;29.60;51.00;;;;;;4948733;28;20062;-76
2021/06/17 11:37:11;;;;;;;2.33;1.98;;;29.70;50.70;;;;;;4936460;28;20023;-77
2021/06/17 11:39:37;;;;;;;2.45;2.20;;;29.80;49.00;;;;;;4939061;28;20477;-77
2021/06/17 11:42:04;;;;;;;1.98;1.88;;;29.90;48.80;;;;;;4950952;28;20025;-77
2021/06/17 11:44:31;;;;;;;2.33;2.10;;;30.10;50.10;;;;;;4930602;28;20199;-78
2021/06/17 11:47:11;;;;;;;2.67;2.08;;;30.00;47.60;;;;;;4954529;28;20109;-77
2021/06/17 11:49:39;;;;;;;2.33;2.17;;;30.00;45.30;;;;;;4936702;28;20182;-77
2021/06/17 11:52:16;;;;;;;2.35;2.03;;;30.10;47.40;;;;;;4956161;28;20113;-77
2021/06/17 11:54:50;;;;;;;2.28;2.08;;;30.20;45.90;;;;;;4950310;28;20035;-77
2021/06/17 11:57:16;;;;;;;2.75;2.10;;;30.30;46.50;;;;;;4954750;28;20058;-77
2021/06/17 11:59:50;;;;;;;2.40;2.20;;;30.30;44.90;;;;;;4938114;28;20504;-76
2021/06/17 12:02:22;;;;;;;2.55;2.13;;;30.20;44.70;;;;;;4951572;28;20038;-76
2021/06/17 12:04:59;;;;;;;2.33;2.15;;;30.20;47.00;;;;;;4955214;28;20050;-76
2021/06/17 12:07:49;;;;;;;2.65;2.25;;;30.30;45.40;;;;;;4944335;28;20096;-77
2021/06/17 12:10:24;;;;;;;3.45;2.42;;;30.40;47.70;;;;;;4962782;28;20041;-78
2021/06/17 12:12:52;;;;;;;3.35;2.25;;;30.60;48.10;;;;;;4937963;28;20118;-78
2021/06/17 12:15:21;;;;;;;3.30;1.75;;;30.90;46.10;;;;;;4947506;28;20019;-78
2021/06/17 12:17:53;;;;;;;2.95;1.88;;;31.20;46.60;;;;;;4949745;28;20038;-78
2021/06/17 12:20:27;;;;;;;2.35;2.17;;;31.40;46.10;;;;;;4945704;28;20780;-77
2021/06/17 12:23:02;;;;;;;2.15;1.65;;;31.70;43.80;;;;;;4950678;28;20470;-77
2021/06/17 12:25:30;;;;;;;1.95;1.80;;;32.00;43.90;;;;;;4959944;28;20114;-77
2021/06/17 12:27:59;;;;;;;2.50;1.88;;;31.90;42.90;;;;;;4958038;28;20084;-77
2021/06/17 12:30:25;;;;;;;3.38;2.28;;;31.80;43.50;;;;;;4928395;28;20034;-75
2021/06/17 12:32:51;;;;;;;2.78;2.10;;;31.80;45.00;;;;;;4933403;28;20058;-76
2021/06/17 12:35:17;;;;;;;5.55;2.17;;;31.80;49.00;;;;;;4935005;28;20457;-76
2021/06/17 12:37:50;;;;;;;2.30;2.00;;;31.70;44.70;;;;;;4949805;28;20110;-77
2021/06/17 12:40:26;;;;;;;3.97;2.05;;;31.80;45.20;;;;;;4953929;28;20027;-76
2021/06/17 12:43:02;;;;;;;2.03;1.80;;;31.90;41.70;;;;;;4934431;28;20031;-76
2021/06/17 12:45:28;;;;;;;2.50;2.30;;;32.00;43.30;;;;;;4935522;28;20031;-77
2021/06/17 12:47:54;;;;;;;4.28;2.00;;;32.20;42.50;;;;;;4951151;28;20030;-77
2021/06/17 12:53:07;;;;;;;1.60;1.50;;;32.60;42.40;;;;;;4950260;28;20098;-77
2021/06/17 12:55:37;;;;;;;2.05;1.90;;;32.60;40.00;;;;;;4960479;28;20023;-76
2021/06/17 12:58:04;;;;;;;2.22;1.90;;;32.70;40.20;;;;;;4953372;28;20058;-76
2021/06/17 13:00:29;;;;;;;2.10;1.83;;;32.70;40.10;;;;;;4958315;28;20027;-77
2021/06/17 13:02:55;;;;;;;2.17;1.98;;;32.70;39.50;;;;;;4942798;28;20537;-77
2021/06/17 13:05:23;;;;;;;1.90;1.60;;;32.80;41.00;;;;;;4929847;28;20427;-77
2021/06/17 13:08:06;;;;;;;2.25;1.73;;;32.80;39.30;;;;;;4937552;28;20037;-77
2021/06/17 13:10:45;;;;;;;2.28;1.95;;;33.00;40.60;;;;;;4952534;28;20087;-77
2021/06/17 13:13:28;;;;;;;1.73;1.63;;;33.20;39.20;;;;;;4951157;28;20030;-76
2021/06/17 13:15:58;;;;;;;1.75;1.65;;;33.20;38.60;;;;;;4962224;28;20755;-77
2021/06/17 13:18:26;;;;;;;3.38;2.00;;;33.00;37.30;;;;;;4958910;28;20490;-77
2021/06/17 13:20:54;;;;;;;2.80;1.95;;;33.00;37.50;;;;;;4945975;28;20151;-76
2021/06/17 13:23:22;;;;;;;2.00;1.90;;;33.20;38.70;;;;;;4952157;28;20035;-77
2021/06/17 13:26:00;;;;;;;2.78;1.95;;;33.40;40.00;;;;;;4957039;28;20034;-77
2021/06/17 13:28:41;;;;;;;1.90;1.55;;;33.70;38.00;;;;;;4954509;28;20170;-77
2021/06/17 13:31:17;;;;;;;1.77;1.60;;;34.00;35.40;;;;;;4945969;28;20086;-77
2021/06/17 13:33:43;;;;;;;1.83;1.60;;;34.00;36.50;;;;;;4951991;28;20126;-78
2021/06/17 13:36:10;;;;;;;5.18;1.92;;;33.70;37.20;;;;;;4934273;28;20047;-78
2021/06/17 13:38:37;;;;;;;1.77;1.67;;;33.80;37.50;;;;;;4953983;28;20176;-77
2021/06/17 13:41:03;;;;;;;2.13;1.92;;;34.00;35.30;;;;;;4952277;28;20042;-77
2021/06/17 13:43:29;;;;;;;1.85;1.67;;;33.70;37.70;;;;;;4956319;28;20452;-77
2021/06/17 13:45:54;;;;;;;2.53;1.73;;;33.60;37.60;;;;;;4955307;28;20102;-76
2021/06/17 13:48:20;;;;;;;1.73;1.63;;;33.60;35.40;;;;;;4924495;28;20078;-77
2021/06/17 13:50:46;;;;;;;1.60;1.50;;;33.70;36.30;;;;;;4955624;28;20033;-76
2021/06/17 13:53:12;;;;;;;1.40;1.30;;;33.80;34.80;;;;;;4932101;28;20040;-76
2021/06/17 13:55:40;;;;;;;1.58;1.48;;;33.80;34.50;;;;;;4950390;28;20740;-77
2021/06/17 13:58:07;;;;;;;1.67;1.55;;;33.80;33.60;;;;;;4930573;28;20027;-76
2021/06/17 14:00:35;;;;;;;4.72;3.40;;;33.60;35.80;;;;;;4955284;28;20392;-76
2021/06/17 14:03:01;;;;;;;3.25;1.70;;;33.30;35.50;;;;;;4952563;28;20110;-77
2021/06/17 14:05:28;;;;;;;1.88;1.73;;;33.10;37.60;;;;;;4953932;28;20114;-76
2021/06/17 14:07:55;;;;;;;2.17;1.80;;;32.80;38.70;;;;;;4936951;28;20170;-77
2021/06/17 14:10:21;;;;;;;2.00;1.80;;;32.60;37.90;;;;;;4921348;28;20043;-77
2021/06/17 14:12:47;;;;;;;2.17;1.85;;;32.40;38.80;;;;;;4954319;28;20030;-77
2021/06/17 14:15:15;;;;;;;2.10;1.83;;;32.20;38.30;;;;;;4955431;28;20023;-77
2021/06/17 14:17:41;;;;;;;1.80;1.70;;;31.90;40.90;;;;;;4949972;28;20447;-77
2021/06/17 14:20:08;;;;;;;2.28;2.15;;;31.80;41.40;;;;;;4951643;28;20050;-76
2021/06/17 14:22:35;;;;;;;2.97;2.40;;;31.70;41.40;;;;;;4950778;28;20557;-76